Time;durP1;ratioP1;P1;durP2;ratioP2;P2;SDS_P1;SDS_P2;PMS_P1;PMS_P2;Temp;Humidity;BMP_temperature;BMP_pressure;BME280_temperature;BME280_humidity;BME280_pressure;Samples;Min_cycle;Max_cycle;Signal;HPM_P1;HPM_P2
2021/10/12 00:01:26;;;;;;;38.60;34.70;;;10.20;99.90;;;;;;5073124;28;20454;-76
2021/10/12 00:03:53;;;;;;;41.67;37.43;;;10.20;99.90;;;;;;5072551;28;20447;-76
2021/10/12 00:06:20;;;;;;;42.40;36.40;;;10.10;99.90;;;;;;5073373;28;20451;-76
2021/10/12 00:08:48;;;;;;;40.50;36.17;;;10.10;99.90;;;;;;5073059;28;20454;-76
2021/10/12 00:11:15;;;;;;;39.83;35.63;;;10.10;99.90;;;;;;5072852;28;20463;-76
2021/10/12 00:13:42;;;;;;;40.50;36.30;;;10.20;99.90;;;;;;5072694;28;20483;-75
2021/10/12 00:16:09;;;;;;;41.33;36.93;;;10.20;99.90;;;;;;5073205;28;20457;-75
2021/10/12 00:18:35;;;;;;;42.07;37.83;;;10.10;99.90;;;;;;5073085;28;20458;-76
2021/10/12 00:21:02;;;;;;;45.07;38.40;;;10.20;99.90;;;;;;5072659;28;20471;-76
2021/10/12 00:23:29;;;;;;;42.87;38.47;;;10.20;99.90;;;;;;5072554;28;20448;-76
2021/10/12 00:25:57;;;;;;;42.43;38.20;;;10.10;99.90;;;;;;5072835;28;20459;-75
2021/10/12 00:28:24;;;;;;;40.33;36.43;;;10.00;99.90;;;;;;5072875;28;20735;-75
2021/10/12 00:30:51;;;;;;;40.47;36.10;;;10.00;99.90;;;;;;5072471;28;20489;-76
2021/10/12 00:33:18;;;;;;;42.13;37.60;;;10.00;99.90;;;;;;5072414;28;20851;-76
2021/10/12 00:35:45;;;;;;;42.60;37.83;;;10.00;99.90;;;;;;5072399;28;20860;-76
2021/10/12 00:38:11;;;;;;;43.97;39.23;;;10.00;99.90;;;;;;5072238;28;20710;-76
2021/10/12 00:40:39;;;;;;;45.50;38.53;;;10.00;99.90;;;;;;5072562;28;20455;-76
2021/10/12 00:43:08;;;;;;;42.03;37.77;;;9.90;99.90;;;;;;5072709;28;20451;-76
2021/10/12 00:45:35;;;;;;;45.20;40.80;;;9.90;99.90;;;;;;5072348;28;20455;-76
2021/10/12 00:48:05;;;;;;;43.10;38.57;;;9.90;99.90;;;;;;5072353;28;20465;-75
2021/10/12 00:50:33;;;;;;;42.67;38.13;;;9.90;99.90;;;;;;5071846;28;20456;-76
2021/10/12 00:53:01;;;;;;;46.40;41.67;;;9.90;99.90;;;;;;5072235;28;20494;-77
2021/10/12 00:55:28;;;;;;;45.30;40.53;;;9.80;99.90;;;;;;5071981;28;20457;-74
2021/10/12 00:57:55;;;;;;;44.87;39.97;;;9.80;99.90;;;;;;5071871;28;20451;-75
2021/10/12 01:00:24;;;;;;;45.93;40.17;;;9.90;99.90;;;;;;5072171;28;20794;-76
2021/10/12 01:02:50;;;;;;;46.07;41.17;;;9.90;99.90;;;;;;5072080;28;20447;-76
2021/10/12 01:05:17;;;;;;;49.63;44.20;;;9.80;99.90;;;;;;5071831;28;20464;-75
2021/10/12 01:07:44;;;;;;;46.73;40.93;;;9.80;99.90;;;;;;5071818;28;20447;-74
2021/10/12 01:10:11;;;;;;;45.27;40.37;;;9.70;99.90;;;;;;5071389;28;20444;-75
2021/10/12 01:12:39;;;;;;;42.17;37.77;;;9.70;99.90;;;;;;5071731;28;20465;-75
2021/10/12 01:15:06;;;;;;;50.70;43.00;;;9.80;99.90;;;;;;5071021;28;20450;-76
2021/10/12 01:17:35;;;;;;;47.00;40.63;;;9.80;99.90;;;;;;5071550;28;20455;-75
2021/10/12 01:20:03;;;;;;;45.77;40.10;;;9.80;99.90;;;;;;5071402;28;20465;-76
2021/10/12 01:22:31;;;;;;;43.00;38.47;;;9.80;99.90;;;;;;5071549;28;20455;-75
2021/10/12 01:24:57;;;;;;;49.80;40.30;;;9.70;99.90;;;;;;5071376;28;20835;-76
2021/10/12 01:27:24;;;;;;;55.97;42.57;;;9.70;99.90;;;;;;5071271;28;20447;-75
2021/10/12 01:29:52;;;;;;;51.53;42.20;;;9.70;99.90;;;;;;5071379;28;20474;-75
2021/10/12 01:32:18;;;;;;;50.30;43.53;;;9.70;99.90;;;;;;5071086;28;20457;-76
2021/10/12 01:34:45;;;;;;;56.27;44.10;;;9.70;99.90;;;;;;5071147;28;20487;-75
2021/10/12 01:37:12;;;;;;;50.57;45.20;;;9.70;99.90;;;;;;5071396;28;20451;-76
2021/10/12 01:39:40;;;;;;;55.27;43.20;;;9.70;99.90;;;;;;5071300;28;20479;-75
2021/10/12 01:42:07;;;;;;;53.23;45.37;;;9.60;99.90;;;;;;5071230;28;20508;-75
2021/10/12 01:44:33;;;;;;;57.57;44.47;;;9.60;99.90;;;;;;5071159;28;20458;-75
2021/10/12 01:47:00;;;;;;;58.47;47.13;;;9.60;99.90;;;;;;5070948;28;20447;-76
2021/10/12 01:49:27;;;;;;;54.67;44.67;;;9.60;99.90;;;;;;5070864;28;20952;-76
2021/10/12 01:51:53;;;;;;;58.43;46.47;;;9.60;99.90;;;;;;5071033;28;20451;-76
2021/10/12 01:54:22;;;;;;;60.17;50.33;;;9.60;99.90;;;;;;5071339;28;20506;-76
2021/10/12 01:56:52;;;;;;;61.17;50.87;;;9.60;99.90;;;;;;5070872;28;20449;-74
2021/10/12 01:59:19;;;;;;;60.07;50.00;;;9.60;99.90;;;;;;5070838;28;20500;-75
2021/10/12 02:01:46;;;;;;;65.30;49.33;;;9.70;99.90;;;;;;5070816;28;20446;-75
2021/10/12 02:04:13;;;;;;;56.53;46.73;;;9.70;99.90;;;;;;5070893;28;20450;-75
2021/10/12 02:06:41;;;;;;;62.27;46.97;;;9.70;99.90;;;;;;5070706;28;20791;-76
2021/10/12 02:09:07;;;;;;;64.13;49.90;;;9.60;99.90;;;;;;5070669;28;20455;-76
2021/10/12 02:11:34;;;;;;;54.10;46.77;;;9.70;99.90;;;;;;5071031;28;20451;-76
2021/10/12 02:14:03;;;;;;;54.77;47.30;;;9.70;99.90;;;;;;5070671;28;20482;-76
2021/10/12 02:16:29;;;;;;;55.00;47.03;;;9.70;99.90;;;;;;5070650;28;20461;-76
2021/10/12 02:18:56;;;;;;;58.53;45.63;;;9.70;99.90;;;;;;5070555;28;20446;-77
2021/10/12 02:21:23;;;;;;;52.20;45.70;;;9.80;99.90;;;;;;5070633;28;20514;-76
2021/10/12 02:23:49;;;;;;;56.23;45.57;;;9.80;99.90;;;;;;5070597;28;20592;-76
2021/10/12 02:26:16;;;;;;;59.43;49.57;;;9.80;99.90;;;;;;5070636;28;20466;-75
2021/10/12 02:28:43;;;;;;;57.60;48.67;;;9.80;99.90;;;;;;5070418;28;20818;-76
2021/10/12 02:31:11;;;;;;;60.00;47.50;;;9.80;99.90;;;;;;5070277;28;20907;-76
2021/10/12 02:33:37;;;;;;;66.40;49.13;;;9.80;99.90;;;;;;5070420;28;20487;-75
2021/10/12 02:36:05;;;;;;;67.30;52.23;;;9.90;99.90;;;;;;5070711;28;20455;-75
2021/10/12 02:38:31;;;;;;;54.43;47.20;;;9.90;99.90;;;;;;5072857;28;20945;-75
2021/10/12 02:40:58;;;;;;;57.47;47.57;;;10.00;99.90;;;;;;5072336;28;20458;-74
2021/10/12 02:43:25;;;;;;;51.17;45.57;;;10.00;99.90;;;;;;5071682;28;20455;-75
2021/10/12 02:45:52;;;;;;;58.87;48.83;;;10.00;99.90;;;;;;5070514;28;20818;-75
2021/10/12 02:48:20;;;;;;;51.27;44.63;;;9.90;99.90;;;;;;5070545;28;20501;-75
2021/10/12 02:50:47;;;;;;;49.63;44.37;;;9.90;99.90;;;;;;5070357;28;20447;-75
2021/10/12 02:53:14;;;;;;;59.77;46.27;;;9.90;99.90;;;;;;5070223;28;20469;-76
2021/10/12 02:55:41;;;;;;;56.97;48.13;;;10.00;99.90;;;;;;5070189;28;20835;-76
2021/10/12 02:58:08;;;;;;;54.77;46.87;;;9.90;99.90;;;;;;5070413;28;20531;-75
2021/10/12 03:00:35;;;;;;;59.33;48.77;;;9.80;99.90;;;;;;5070384;28;20500;-76
2021/10/12 03:03:02;;;;;;;55.47;48.67;;;9.70;99.90;;;;;;5070126;28;20508;-75
2021/10/12 03:05:30;;;;;;;53.93;46.50;;;9.70;99.90;;;;;;5070073;28;20446;-75
2021/10/12 03:07:57;;;;;;;53.73;45.33;;;9.70;99.90;;;;;;5069946;28;20454;-74
2021/10/12 03:10:23;;;;;;;53.93;45.60;;;9.80;99.90;;;;;;5069925;28;20830;-74
2021/10/12 03:12:50;;;;;;;54.43;46.10;;;9.80;99.90;;;;;;5070253;28;20455;-74
2021/10/12 03:15:17;;;;;;;49.03;43.80;;;9.70;99.90;;;;;;5070144;28;20481;-75
2021/10/12 03:17:43;;;;;;;45.80;41.13;;;9.70;99.90;;;;;;5070055;28;20447;-77
2021/10/12 03:20:11;;;;;;;43.43;38.83;;;9.70;99.90;;;;;;5070174;28;20809;-77
2021/10/12 03:22:39;;;;;;;45.77;39.67;;;9.70;99.90;;;;;;5069868;28;20540;-76
2021/10/12 03:25:06;;;;;;;49.70;40.90;;;9.90;99.90;;;;;;5069968;28;20443;-75
2021/10/12 03:27:33;;;;;;;46.50;41.53;;;9.90;99.90;;;;;;5070379;28;20554;-75
2021/10/12 03:30:00;;;;;;;43.80;39.33;;;9.80;99.90;;;;;;5069821;28;20477;-76
2021/10/12 03:32:26;;;;;;;50.00;41.23;;;9.80;99.90;;;;;;5069928;28;21137;-76
2021/10/12 03:34:53;;;;;;;47.80;41.67;;;9.80;99.90;;;;;;5070123;28;20485;-75
2021/10/12 03:37:20;;;;;;;49.17;42.03;;;9.80;99.90;;;;;;5070111;28;20454;-76
2021/10/12 03:39:48;;;;;;;47.87;42.73;;;9.70;99.90;;;;;;5073569;28;20446;-75
2021/10/12 03:42:14;;;;;;;50.30;43.13;;;9.70;99.90;;;;;;5073433;28;20990;-75
2021/10/12 03:44:41;;;;;;;46.97;41.90;;;9.80;99.90;;;;;;5073126;28;20455;-74
2021/10/12 03:47:08;;;;;;;46.43;41.60;;;9.90;99.90;;;;;;5073304;28;20497;-74
2021/10/12 03:49:35;;;;;;;46.93;41.80;;;9.90;99.90;;;;;;5073606;28;20462;-74
2021/10/12 03:52:01;;;;;;;45.90;41.57;;;9.90;99.90;;;;;;5073411;28;20442;-75
2021/10/12 03:54:28;;;;;;;45.70;41.20;;;10.00;99.90;;;;;;5072999;28;20486;-75
2021/10/12 03:56:56;;;;;;;44.60;39.83;;;10.00;99.90;;;;;;5072902;28;20472;-74
2021/10/12 03:59:23;;;;;;;42.37;38.03;;;10.10;99.90;;;;;;5072764;28;20458;-74
2021/10/12 04:01:50;;;;;;;44.50;39.80;;;10.10;99.90;;;;;;5073253;28;20455;-75
2021/10/12 04:04:17;;;;;;;43.30;38.60;;;10.20;99.90;;;;;;5072988;28;20450;-75
2021/10/12 04:06:43;;;;;;;41.23;37.20;;;10.20;99.90;;;;;;5072996;28;20451;-75
2021/10/12 04:09:10;;;;;;;43.90;38.50;;;10.20;99.90;;;;;;5072545;28;20455;-75
2021/10/12 04:11:37;;;;;;;39.57;35.80;;;10.20;99.90;;;;;;5072835;28;20451;-75
2021/10/12 04:14:05;;;;;;;43.93;38.50;;;10.20;99.90;;;;;;5073086;28;20486;-76
2021/10/12 04:16:32;;;;;;;40.70;36.40;;;10.20;99.90;;;;;;5073086;28;20497;-73
2021/10/12 04:18:59;;;;;;;41.73;37.23;;;10.20;99.90;;;;;;5072612;28;20455;-74
2021/10/12 04:21:26;;;;;;;39.30;33.73;;;10.20;99.90;;;;;;5072449;28;20478;-75
2021/10/12 04:23:53;;;;;;;40.50;36.13;;;10.20;99.90;;;;;;5072355;28;20454;-74
2021/10/12 04:26:20;;;;;;;42.23;37.67;;;10.20;99.90;;;;;;5072851;28;20475;-75
2021/10/12 04:28:46;;;;;;;41.50;37.30;;;10.20;99.90;;;;;;5072426;28;20451;-76
2021/10/12 04:31:14;;;;;;;41.47;37.27;;;10.30;99.90;;;;;;5072260;28;20482;-76
2021/10/12 04:33:41;;;;;;;42.17;37.60;;;10.30;99.90;;;;;;5072146;28;20640;-74
2021/10/12 04:36:08;;;;;;;39.23;35.40;;;10.30;99.90;;;;;;5072220;28;20501;-76
2021/10/12 04:38:34;;;;;;;42.97;39.00;;;10.30;99.90;;;;;;5072413;28;20458;-77
2021/10/12 04:41:02;;;;;;;41.27;37.73;;;10.30;99.90;;;;;;5072161;28;20446;-75
2021/10/12 04:43:29;;;;;;;44.33;40.23;;;10.40;99.90;;;;;;5072013;28;20447;-79
2021/10/12 04:45:55;;;;;;;47.00;43.00;;;10.40;99.90;;;;;;5071998;28;20941;-75
2021/10/12 04:48:24;;;;;;;51.67;46.87;;;10.30;99.90;;;;;;5071764;28;20447;-72
2021/10/12 04:50:50;;;;;;;55.13;49.83;;;10.30;99.90;;;;;;5071956;28;20455;-72
2021/10/12 04:53:17;;;;;;;56.03;50.70;;;10.20;99.90;;;;;;5072007;28;20458;-74
2021/10/12 04:55:44;;;;;;;64.20;58.07;;;10.30;99.90;;;;;;5071814;28;20483;-74
2021/10/12 04:58:11;;;;;;;62.77;57.10;;;10.30;99.90;;;;;;5071836;28;20455;-73
2021/10/12 05:00:38;;;;;;;64.57;58.80;;;10.20;99.90;;;;;;5072063;28;20454;-74
2021/10/12 05:03:05;;;;;;;65.63;59.17;;;10.20;99.90;;;;;;5072035;28;20978;-75
2021/10/12 05:05:34;;;;;;;69.87;63.17;;;10.20;99.90;;;;;;5072180;28;20479;-75
2021/10/12 05:08:01;;;;;;;68.90;62.60;;;10.10;99.90;;;;;;5072007;28;20454;-75
2021/10/12 05:10:28;;;;;;;65.87;59.97;;;10.10;99.90;;;;;;5071704;28;20961;-76
2021/10/12 05:12:55;;;;;;;68.53;62.53;;;10.10;99.90;;;;;;5071461;28;20451;-76
2021/10/12 05:15:23;;;;;;;66.90;60.47;;;10.00;99.90;;;;;;5072066;28;20482;-76
2021/10/12 05:17:50;;;;;;;64.37;58.77;;;10.00;99.90;;;;;;5071776;28;20882;-74
2021/10/12 05:20:18;;;;;;;66.50;59.97;;;10.00;99.90;;;;;;5071476;28;20528;-75
2021/10/12 05:22:47;;;;;;;66.33;60.33;;;10.10;99.90;;;;;;5072040;28;20860;-76
2021/10/12 05:25:14;;;;;;;70.27;63.60;;;10.10;99.90;;;;;;5071911;28;21133;-77
2021/10/12 05:27:41;;;;;;;66.57;60.47;;;10.10;99.90;;;;;;5072021;28;20451;-76
2021/10/12 05:30:10;;;;;;;70.20;63.43;;;10.10;99.90;;;;;;5071624;28;20884;-75
2021/10/12 05:32:36;;;;;;;68.30;61.90;;;10.10;99.90;;;;;;5071609;28;20451;-75
2021/10/12 05:35:04;;;;;;;70.63;64.00;;;10.20;99.90;;;;;;5071555;28;20483;-76
2021/10/12 05:37:30;;;;;;;75.10;67.53;;;10.20;99.90;;;;;;5071872;28;20461;-76
2021/10/12 05:39:59;;;;;;;71.43;64.30;;;10.20;99.90;;;;;;5071335;28;20867;-74
2021/10/12 05:42:25;;;;;;;74.77;67.90;;;10.30;99.90;;;;;;5071626;28;20452;-75
2021/10/12 05:44:52;;;;;;;69.53;63.63;;;10.40;99.90;;;;;;5071505;28;20443;-75
2021/10/12 05:47:19;;;;;;;70.47;64.13;;;10.40;99.90;;;;;;5071532;28;20443;-76
2021/10/12 05:49:45;;;;;;;70.47;63.60;;;10.50;99.90;;;;;;5071211;28;20447;-77
2021/10/12 05:52:15;;;;;;;71.57;64.67;;;10.50;99.90;;;;;;5071338;28;20799;-79
2021/10/12 05:54:48;;;;;;;73.00;65.57;;;10.50;99.90;;;;;;5071235;28;21013;-78
2021/10/12 05:57:23;;;;;;;74.33;67.23;;;10.50;99.90;;;;;;5071499;28;20448;-77
2021/10/12 05:59:49;;;;;;;75.27;68.43;;;10.50;99.90;;;;;;5071474;28;20447;-77
2021/10/12 06:02:16;;;;;;;74.67;66.10;;;10.50;99.90;;;;;;5070801;28;20960;-76
2021/10/12 06:04:42;;;;;;;74.97;67.00;;;10.30;99.90;;;;;;5070922;28;20877;-77
2021/10/12 06:07:09;;;;;;;73.77;66.97;;;10.30;99.90;;;;;;5071440;28;20467;-77
2021/10/12 06:09:36;;;;;;;73.97;67.40;;;10.40;99.90;;;;;;5071816;28;20451;-78
2021/10/12 06:12:03;;;;;;;70.73;64.23;;;10.40;99.90;;;;;;5071219;28;20447;-78
2021/10/12 06:14:31;;;;;;;73.53;66.70;;;10.50;99.90;;;;;;5071087;28;20484;-78
2021/10/12 06:16:57;;;;;;;71.43;64.40;;;10.30;99.90;;;;;;5071076;28;21196;-76
2021/10/12 06:19:24;;;;;;;75.47;68.07;;;10.20;99.90;;;;;;5070801;28;20440;-77
2021/10/12 06:21:51;;;;;;;75.23;65.77;;;10.10;99.90;;;;;;5071384;28;20451;-77
2021/10/12 06:24:17;;;;;;;72.27;65.37;;;10.10;99.90;;;;;;5071495;28;20453;-78
2021/10/12 06:26:44;;;;;;;71.93;65.23;;;10.20;99.90;;;;;;5070820;28;21055;-79
2021/10/12 06:29:11;;;;;;;71.10;63.93;;;10.20;99.90;;;;;;5071264;28;20451;-80
2021/10/12 06:31:40;;;;;;;68.03;61.93;;;10.20;99.90;;;;;;5070754;28;20486;-80
2021/10/12 06:34:06;;;;;;;70.27;63.23;;;10.20;99.90;;;;;;5070826;28;20446;-81
2021/10/12 06:36:33;;;;;;;67.73;61.93;;;10.20;99.90;;;;;;5070503;28;20478;-80
2021/10/12 06:39:00;;;;;;;67.73;60.83;;;10.30;99.90;;;;;;5070660;28;20451;-78
2021/10/12 06:41:27;;;;;;;70.27;63.50;;;10.40;99.90;;;;;;5071094;28;20454;-77
2021/10/12 06:43:53;;;;;;;74.17;66.90;;;10.30;99.90;;;;;;5071073;28;20451;-77
2021/10/12 06:46:20;;;;;;;72.03;65.33;;;10.40;99.90;;;;;;5070954;28;20454;-76
2021/10/12 06:48:48;;;;;;;77.83;69.93;;;10.40;99.90;;;;;;5071163;28;20451;-78
2021/10/12 06:51:15;;;;;;;80.00;72.50;;;10.50;99.90;;;;;;5070961;28;20447;-82
2021/10/12 06:53:46;;;;;;;84.17;75.67;;;10.40;99.90;;;;;;5070754;28;20965;-79
2021/10/12 06:56:14;;;;;;;78.60;71.10;;;10.50;99.90;;;;;;5070861;28;20486;-77
2021/10/12 06:58:41;;;;;;;77.97;70.37;;;10.50;99.90;;;;;;5070714;28;20451;-83
2021/10/12 07:01:08;;;;;;;69.33;62.43;;;10.50;99.90;;;;;;5070640;28;20541;-82
2021/10/12 07:03:34;;;;;;;71.07;64.07;;;10.50;99.90;;;;;;5070687;28;20503;-78
2021/10/12 07:06:03;;;;;;;72.80;65.30;;;10.50;99.90;;;;;;5070550;28;20458;-78
2021/10/12 07:08:29;;;;;;;68.37;61.83;;;10.50;99.90;;;;;;5070473;28;20455;-80
2021/10/12 07:10:56;;;;;;;65.13;59.27;;;10.50;99.90;;;;;;5070252;28;20447;-76
2021/10/12 07:13:28;;;;;;;69.07;62.47;;;10.60;99.90;;;;;;5070233;28;20483;-78
2021/10/12 07:15:55;;;;;;;68.47;61.80;;;10.60;99.90;;;;;;5077676;28;20483;-77
2021/10/12 07:18:22;;;;;;;66.93;60.97;;;10.60;99.90;;;;;;5079656;28;20454;-78
2021/10/12 07:20:49;;;;;;;66.17;59.80;;;10.60;99.90;;;;;;5079231;28;20466;-77
2021/10/12 07:23:18;;;;;;;63.17;57.43;;;10.70;99.90;;;;;;5076699;28;20462;-80
2021/10/12 07:25:44;;;;;;;63.60;57.30;;;10.80;99.90;;;;;;5074353;28;20945;-80
2021/10/12 07:28:12;;;;;;;67.57;60.97;;;10.80;99.90;;;;;;5074147;28;20504;-79
2021/10/12 07:30:38;;;;;;;64.60;57.87;;;10.80;99.90;;;;;;5074166;28;20670;-80
2021/10/12 07:33:05;;;;;;;56.93;52.13;;;10.70;99.90;;;;;;5074353;28;20451;-81
2021/10/12 07:35:32;;;;;;;61.83;56.40;;;10.80;99.90;;;;;;5074215;28;20483;-82
2021/10/12 07:37:58;;;;;;;61.87;56.50;;;10.90;99.90;;;;;;5074217;28;20516;-80
2021/10/12 07:40:27;;;;;;;61.03;55.33;;;10.80;99.90;;;;;;5074055;28;20455;-83
2021/10/12 07:42:53;;;;;;;62.87;56.97;;;10.90;99.90;;;;;;5074004;28;20458;-82
2021/10/12 07:45:20;;;;;;;59.90;54.50;;;11.10;99.90;;;;;;5074325;28;20443;-82
2021/10/12 07:47:47;;;;;;;59.63;54.50;;;11.20;99.90;;;;;;5073934;28;20807;-81
2021/10/12 07:50:15;;;;;;;57.20;52.57;;;11.10;99.90;;;;;;5074066;28;20443;-82
2021/10/12 07:52:43;;;;;;;56.17;51.53;;;11.20;99.90;;;;;;5073736;28;20820;-81
2021/10/12 07:55:15;;;;;;;56.17;51.67;;;11.20;99.90;;;;;;5073762;28;20525;-82
2021/10/12 07:57:43;;;;;;;56.50;51.60;;;11.20;99.90;;;;;;5073912;28;20512;-81
2021/10/12 08:00:12;;;;;;;54.37;49.97;;;11.20;99.90;;;;;;5073773;28;20451;-80
2021/10/12 08:02:38;;;;;;;53.83;48.73;;;11.10;99.90;;;;;;5073670;28;20461;-80
2021/10/12 08:05:06;;;;;;;53.00;48.60;;;11.20;99.90;;;;;;5073672;28;20500;-81
2021/10/12 08:07:33;;;;;;;52.97;48.50;;;11.20;99.90;;;;;;5072214;28;20442;-80
2021/10/12 08:09:59;;;;;;;52.20;47.90;;;11.20;99.90;;;;;;5062793;28;20452;-78
2021/10/12 08:12:26;;;;;;;52.43;47.90;;;11.10;99.90;;;;;;5073368;28;20443;-79
2021/10/12 08:14:59;;;;;;;50.87;46.67;;;11.20;99.90;;;;;;5070498;28;20838;-78
2021/10/12 08:17:26;;;;;;;51.07;46.47;;;11.10;99.90;;;;;;5063543;28;20462;-77
2021/10/12 08:19:53;;;;;;;48.83;45.10;;;11.00;99.90;;;;;;5064786;28;20550;-78
2021/10/12 08:22:19;;;;;;;42.97;40.07;;;11.20;99.90;;;;;;5053431;28;20448;-79
2021/10/12 08:24:46;;;;;;;43.03;40.13;;;11.20;99.90;;;;;;5066780;28;20439;-78
2021/10/12 08:27:13;;;;;;;44.57;40.97;;;11.20;99.90;;;;;;5073747;28;20447;-78
2021/10/12 08:29:40;;;;;;;43.60;40.50;;;11.30;99.90;;;;;;5073337;28;20443;-76
2021/10/12 08:32:08;;;;;;;44.13;40.80;;;11.50;99.90;;;;;;5069568;28;20440;-77
2021/10/12 08:34:34;;;;;;;39.37;36.17;;;11.50;99.90;;;;;;5053545;28;20456;-76
2021/10/12 08:37:01;;;;;;;38.60;36.00;;;11.50;99.90;;;;;;5053265;28;20492;-76
2021/10/12 08:39:31;;;;;;;36.17;33.40;;;11.60;99.90;;;;;;5053073;28;20448;-75
2021/10/12 08:42:04;;;;;;;38.63;35.93;;;11.60;99.90;;;;;;5052950;28;20452;-75
2021/10/12 08:44:31;;;;;;;36.43;33.90;;;11.60;99.90;;;;;;5053056;28;20456;-75
2021/10/12 08:46:58;;;;;;;34.63;32.53;;;11.80;99.90;;;;;;5052842;28;20448;-75
2021/10/12 08:49:26;;;;;;;33.03;30.93;;;11.80;99.90;;;;;;5058560;28;20442;-75
2021/10/12 08:51:53;;;;;;;32.60;30.50;;;12.00;99.90;;;;;;5072987;28;20821;-75
2021/10/12 08:54:20;;;;;;;32.10;29.80;;;12.10;99.90;;;;;;5072959;28;20450;-75
2021/10/12 08:56:46;;;;;;;30.17;28.00;;;12.20;99.90;;;;;;5072945;28;20483;-76
2021/10/12 08:59:13;;;;;;;29.77;28.07;;;12.60;99.90;;;;;;5073005;28;20868;-76
2021/10/12 09:01:57;;;;;;;27.60;25.77;;;12.70;99.90;;;;;;5072317;28;20832;-76
2021/10/12 09:04:23;;;;;;;25.00;23.40;;;12.70;99.90;;;;;;5072951;28;20853;-76
2021/10/12 09:06:55;;;;;;;25.43;23.83;;;12.60;99.90;;;;;;5072872;28;20451;-76
2021/10/12 09:09:34;;;;;;;26.00;24.40;;;12.60;99.90;;;;;;5072620;28;20447;-77
2021/10/12 09:12:00;;;;;;;28.20;26.33;;;12.30;99.90;;;;;;5072687;28;20485;-80
2021/10/12 09:14:27;;;;;;;29.03;27.33;;;12.40;99.90;;;;;;5072325;28;20455;-81
2021/10/12 09:17:04;;;;;;;29.43;27.77;;;12.60;99.90;;;;;;5071781;28;20483;-79
2021/10/12 09:19:33;;;;;;;27.60;25.97;;;12.80;99.90;;;;;;5072032;28;20558;-80
2021/10/12 09:22:06;;;;;;;27.50;25.90;;;12.90;99.90;;;;;;5071999;28;20478;-79
2021/10/12 09:24:38;;;;;;;29.40;26.90;;;13.30;99.90;;;;;;5072139;28;20509;-80
2021/10/12 09:27:07;;;;;;;26.03;24.30;;;13.60;99.90;;;;;;5072163;28;20827;-80
2021/10/12 09:29:36;;;;;;;26.03;24.07;;;13.90;99.90;;;;;;5071756;28;20945;-78
2021/10/12 09:32:05;;;;;;;21.80;20.53;;;14.10;99.90;;;;;;5072124;28;20451;-78
2021/10/12 09:34:33;;;;;;;21.93;20.20;;;14.00;99.90;;;;;;5071930;28;21156;-78
2021/10/12 09:37:01;;;;;;;20.30;18.80;;;14.00;99.90;;;;;;5071090;28;20487;-78
2021/10/12 09:39:33;;;;;;;19.77;18.20;;;13.90;99.90;;;;;;5071909;28;20455;-79
2021/10/12 09:42:01;;;;;;;19.50;18.10;;;14.00;99.90;;;;;;5071787;28;20486;-80
2021/10/12 09:44:29;;;;;;;19.60;18.37;;;14.30;99.90;;;;;;5071780;28;20816;-81
2021/10/12 09:47:07;;;;;;;18.60;17.50;;;14.40;99.90;;;;;;5071607;28;20465;-81
2021/10/12 09:49:34;;;;;;;21.57;19.73;;;14.50;99.90;;;;;;5067728;28;20444;-81
2021/10/12 09:52:04;;;;;;;20.73;18.93;;;14.70;99.90;;;;;;5051784;28;20467;-82
2021/10/12 09:54:32;;;;;;;18.40;17.30;;;14.70;99.90;;;;;;5055241;28;20444;-80
2021/10/12 09:57:00;;;;;;;18.87;17.73;;;14.80;99.90;;;;;;5059628;28;20496;-81
2021/10/12 09:59:27;;;;;;;18.97;17.43;;;15.30;99.90;;;;;;5060790;28;20440;-79
2021/10/12 10:01:56;;;;;;;16.50;15.50;;;15.60;99.90;;;;;;5062355;28;20448;-83
2021/10/12 10:04:23;;;;;;;16.47;15.57;;;15.50;99.90;;;;;;5079521;28;20443;-83
2021/10/12 10:06:52;;;;;;;16.87;16.03;;;15.50;99.90;;;;;;5073299;28;20447;-83
2021/10/12 10:09:23;;;;;;;17.93;16.57;;;15.10;99.90;;;;;;5073022;28;20455;-81
2021/10/12 10:11:50;;;;;;;16.70;15.67;;;14.60;99.90;;;;;;5072587;28;20501;-81
2021/10/12 10:14:18;;;;;;;17.47;16.37;;;14.40;99.90;;;;;;5072694;28;20447;-83
2021/10/12 10:16:46;;;;;;;18.57;17.37;;;14.00;99.90;;;;;;5071792;28;20478;-82
2021/10/12 10:19:17;;;;;;;18.97;18.07;;;13.70;99.90;;;;;;5071616;28;20458;-82
2021/10/12 10:21:47;;;;;;;20.70;19.40;;;13.30;99.90;;;;;;5071541;28;20457;-83
2021/10/12 10:24:21;;;;;;;22.30;20.60;;;12.90;99.90;;;;;;5071509;28;20962;-79
2021/10/12 10:26:50;;;;;;;21.13;19.97;;;12.90;99.90;;;;;;5071340;28;21019;-78
2021/10/12 10:29:21;;;;;;;21.67;20.33;;;12.90;99.90;;;;;;5071375;28;20447;-78
2021/10/12 10:31:51;;;;;;;20.60;19.40;;;12.90;99.90;;;;;;5071269;28;20528;-78
2021/10/12 10:34:34;;;;;;;20.47;18.97;;;12.90;99.90;;;;;;5071438;28;20482;-78
2021/10/12 10:37:30;;;;;;;18.83;17.53;;;13.00;99.90;;;;;;5071212;28;20490;-76
2021/10/12 10:40:04;;;;;;;19.17;17.57;;;13.30;99.90;;;;;;5070293;28;20500;-75
2021/10/12 10:43:10;;;;;;;16.47;15.47;;;13.70;99.90;;;;;;5071136;28;20455;-78
2021/10/12 10:45:46;;;;;;;15.60;14.37;;;14.30;99.90;;;;;;5068443;28;20509;-78
2021/10/12 10:48:14;;;;;;;15.73;14.60;;;15.20;99.90;;;;;;5074287;28;20446;-81
2021/10/12 10:50:41;;;;;;;16.23;15.07;;;16.10;99.90;;;;;;5075051;28;20463;-83
2021/10/12 10:53:10;;;;;;;15.50;14.50;;;17.10;99.90;;;;;;5075193;28;20545;-80
2021/10/12 10:55:39;;;;;;;15.93;15.00;;;17.80;99.90;;;;;;5075004;28;20474;-79
2021/10/12 10:58:17;;;;;;;16.53;15.60;;;18.40;99.90;;;;;;5066468;28;20462;-79
2021/10/12 11:00:50;;;;;;;17.57;16.40;;;18.60;99.90;;;;;;5074819;28;20462;-78
2021/10/12 11:03:42;;;;;;;20.37;18.80;;;17.50;99.90;;;;;;5074922;28;20941;-78
2021/10/12 11:06:17;;;;;;;16.80;15.67;;;17.90;99.90;;;;;;5064567;28;21084;-76
2021/10/12 11:09:01;;;;;;;16.30;15.27;;;17.70;99.90;;;;;;5065319;28;20458;-75
2021/10/12 11:11:34;;;;;;;16.50;15.50;;;17.00;99.90;;;;;;5054903;28;20459;-75
2021/10/12 11:14:01;;;;;;;17.40;16.20;;;16.50;99.90;;;;;;5072387;28;20450;-75
2021/10/12 11:16:36;;;;;;;17.07;16.07;;;16.30;99.90;;;;;;5074526;28;20925;-75
2021/10/12 11:19:04;;;;;;;17.27;16.20;;;16.40;99.90;;;;;;5074971;28;20447;-76
2021/10/12 11:21:30;;;;;;;15.90;15.03;;;16.20;99.90;;;;;;5065256;28;20459;-75
2021/10/12 11:23:58;;;;;;;17.80;16.40;;;16.00;99.90;;;;;;5054523;28;20459;-75
2021/10/12 11:26:28;;;;;;;16.90;15.90;;;15.60;99.90;;;;;;5054552;28;20480;-76
2021/10/12 11:28:56;;;;;;;17.00;15.87;;;15.30;99.90;;;;;;5054463;28;20494;-77
2021/10/12 11:31:24;;;;;;;18.13;16.83;;;15.30;99.90;;;;;;5054203;28;20486;-78
2021/10/12 11:33:54;;;;;;;18.20;16.97;;;14.90;99.90;;;;;;5054424;28;20506;-79
2021/10/12 11:36:22;;;;;;;18.77;17.33;;;14.40;99.90;;;;;;5054660;28;20448;-79
2021/10/12 11:38:52;;;;;;;16.40;15.10;;;14.30;99.90;;;;;;5065436;28;20443;-77
2021/10/12 11:41:23;;;;;;;16.07;15.07;;;14.30;99.90;;;;;;5074469;28;20501;-76
2021/10/12 11:43:51;;;;;;;13.90;13.10;;;14.40;99.90;;;;;;5074491;28;20443;-76
2021/10/12 11:46:24;;;;;;;14.10;13.00;;;14.50;99.90;;;;;;5074156;28;20556;-76
2021/10/12 11:48:51;;;;;;;16.37;14.77;;;14.70;99.90;;;;;;5074211;28;20455;-76
2021/10/12 11:51:22;;;;;;;15.13;14.23;;;15.30;99.90;;;;;;5074161;28;20454;-77
2021/10/12 11:53:50;;;;;;;16.40;15.30;;;15.70;99.90;;;;;;5074292;28;20454;-76
2021/10/12 11:56:20;;;;;;;14.20;13.03;;;16.10;99.90;;;;;;5074040;28;20937;-76
2021/10/12 11:58:47;;;;;;;15.03;13.90;;;16.30;99.90;;;;;;5073191;28;20513;-75
2021/10/12 12:01:17;;;;;;;14.40;13.40;;;16.90;99.90;;;;;;5073874;28;20933;-75
2021/10/12 12:03:44;;;;;;;15.77;14.60;;;17.60;99.90;;;;;;5075435;28;20489;-74
2021/10/12 12:06:11;;;;;;;15.13;13.90;;;17.50;99.90;;;;;;5076306;28;20451;-74
2021/10/12 12:08:41;;;;;;;15.60;14.60;;;17.30;99.90;;;;;;5076453;28;20494;-74
2021/10/12 12:11:08;;;;;;;14.03;13.03;;;17.20;99.90;;;;;;5073918;28;20538;-75
2021/10/12 12:13:36;;;;;;;13.90;13.10;;;17.40;99.90;;;;;;5073611;28;20444;-75
2021/10/12 12:16:03;;;;;;;14.73;13.73;;;17.20;99.90;;;;;;5073549;28;20451;-75
2021/10/12 12:18:38;;;;;;;14.47;13.50;;;16.90;99.90;;;;;;5073185;28;20455;-76
2021/10/12 12:21:05;;;;;;;14.63;13.63;;;16.30;99.90;;;;;;5073478;28;21000;-77
2021/10/12 12:23:38;;;;;;;15.90;14.70;;;16.50;99.90;;;;;;5073325;28;20454;-76
2021/10/12 12:26:09;;;;;;;14.80;13.90;;;16.60;99.90;;;;;;5073089;28;20458;-76
2021/10/12 12:28:36;;;;;;;15.50;14.50;;;16.90;99.90;;;;;;5073234;28;21042;-76
2021/10/12 12:31:22;;;;;;;14.53;13.57;;;18.40;99.90;;;;;;5073032;28;20471;-75
2021/10/12 12:33:51;;;;;;;13.37;12.67;;;19.30;99.90;;;;;;5073255;28;20454;-75